sensor_id;sensor_type;location;lat;lon;timestamp;P1;durP1;ratioP1;P2;durP2;ratioP2
67429;SDS011;54298;52.076;5.264;2022-08-01T00:00:22;4.1;;;2.8;;
67429;SDS011;54298;52.076;5.264;2022-08-01T00:02:10;4.91;;;3.1;;
67429;SDS011;54298;52.076;5.264;2022-08-01T00:05:45;7.6;;;3.2;;
67429;SDS011;54298;52.076;5.264;2022-08-01T00:07:31;5.5;;;2.8;;
67429;SDS011;54298;52.076;5.264;2022-08-01T00:09:17;4.7;;;3.1;;
67429;SDS011;54298;52.076;5.264;2022-08-01T00:11:04;5.11;;;3.0;;
67429;SDS011;54298;52.076;5.264;2022-08-01T00:12:51;3.8;;;3.0;;
67429;SDS011;54298;52.076;5.264;2022-08-01T00:14:37;9.0;;;3.4;;
67429;SDS011;54298;52.076;5.264;2022-08-01T00:18:11;7.2;;;3.9;;
67429;SDS011;54298;52.076;5.264;2022-08-01T00:19:57;6.0;;;3.3;;
67429;SDS011;54298;52.076;5.264;2022-08-01T00:21:44;7.7;;;4.2;;
67429;SDS011;54298;52.076;5.264;2022-08-01T00:23:32;7.5;;;4.5;;
67429;SDS011;54298;52.076;5.264;2022-08-01T00:25:18;8.4;;;4.8;;
67429;SDS011;54298;52.076;5.264;2022-08-01T00:27:04;9.4;;;5.6;;
67429;SDS011;54298;52.076;5.264;2022-08-01T00:30:37;8.5;;;4.5;;
67429;SDS011;54298;52.076;5.264;2022-08-01T00:32:23;6.8;;;4.0;;
67429;SDS011;54298;52.076;5.264;2022-08-01T00:34:10;8.4;;;4.5;;
67429;SDS011;54298;52.076;5.264;2022-08-01T00:35:57;7.1;;;4.7;;
67429;SDS011;54298;52.076;5.264;2022-08-01T00:37:44;8.9;;;5.11;;
67429;SDS011;54298;52.076;5.264;2022-08-01T00:41:19;8.9;;;4.91;;
67429;SDS011;54298;52.076;5.264;2022-08-01T00:43:05;8.0;;;5.3;;
67429;SDS011;54298;52.076;5.264;2022-08-01T00:44:51;8.2;;;5.11;;
67429;SDS011;54298;52.076;5.264;2022-08-01T00:46:37;8.31;;;5.7;;
67429;SDS011;54298;52.076;5.264;2022-08-01T00:48:23;8.31;;;5.7;;
67429;SDS011;54298;52.076;5.264;2022-08-01T00:50:09;9.5;;;5.8;;
67429;SDS011;54298;52.076;5.264;2022-08-01T00:53:45;9.1;;;5.3;;
67429;SDS011;54298;52.076;5.264;2022-08-01T00:55:31;8.2;;;6.1;;
67429;SDS011;54298;52.076;5.264;2022-08-01T00:57:18;11.4;;;5.9;;
67429;SDS011;54298;52.076;5.264;2022-08-01T00:59:05;9.31;;;5.5;;
67429;SDS011;54298;52.076;5.264;2022-08-01T01:00:53;9.1;;;5.6;;
67429;SDS011;54298;52.076;5.264;2022-08-01T01:02:39;10.0;;;6.0;;
67429;SDS011;54298;52.076;5.264;2022-08-01T01:06:17;9.71;;;6.8;;
67429;SDS011;54298;52.076;5.264;2022-08-01T01:08:13;12.1;;;6.5;;
67429;SDS011;54298;52.076;5.264;2022-08-01T01:10:08;10.3;;;6.6;;
67429;SDS011;54298;52.076;5.264;2022-08-01T01:12:02;11.2;;;6.9;;
67429;SDS011;54298;52.076;5.264;2022-08-01T01:14:00;11.2;;;6.5;;
67429;SDS011;54298;52.076;5.264;2022-08-01T01:15:55;11.4;;;6.9;;
67429;SDS011;54298;52.076;5.264;2022-08-01T01:17:46;12.6;;;8.2;;
67429;SDS011;54298;52.076;5.264;2022-08-01T01:19:44;12.6;;;8.0;;
67429;SDS011;54298;52.076;5.264;2022-08-01T01:21:35;11.0;;;7.4;;
67429;SDS011;54298;52.076;5.264;2022-08-01T01:23:37;14.4;;;7.9;;
67429;SDS011;54298;52.076;5.264;2022-08-01T01:25:40;12.5;;;8.5;;
67429;SDS011;54298;52.076;5.264;2022-08-01T01:29:38;13.5;;;9.31;;
67429;SDS011;54298;52.076;5.264;2022-08-01T01:31:28;12.8;;;7.7;;
67429;SDS011;54298;52.076;5.264;2022-08-01T01:33:19;12.7;;;9.21;;
67429;SDS011;54298;52.076;5.264;2022-08-01T01:35:10;12.8;;;7.6;;
67429;SDS011;54298;52.076;5.264;2022-08-01T01:37:08;11.5;;;8.31;;
67429;SDS011;54298;52.076;5.264;2022-08-01T01:39:06;12.0;;;7.3;;
67429;SDS011;54298;52.076;5.264;2022-08-01T01:40:53;13.4;;;8.6;;
67429;SDS011;54298;52.076;5.264;2022-08-01T01:42:42;12.2;;;9.1;;
67429;SDS011;54298;52.076;5.264;2022-08-01T01:44:30;13.3;;;8.1;;
67429;SDS011;54298;52.076;5.264;2022-08-01T01:48:10;13.2;;;8.1;;
67429;SDS011;54298;52.076;5.264;2022-08-01T01:50:00;15.5;;;9.1;;
67429;SDS011;54298;52.076;5.264;2022-08-01T01:51:50;13.7;;;9.1;;
67429;SDS011;54298;52.076;5.264;2022-08-01T01:53:39;13.4;;;9.5;;
67429;SDS011;54298;52.076;5.264;2022-08-01T01:55:27;15.5;;;9.6;;
67429;SDS011;54298;52.076;5.264;2022-08-01T01:57:16;16.3;;;10.0;;
67429;SDS011;54298;52.076;5.264;2022-08-01T01:59:04;14.3;;;9.21;;
67429;SDS011;54298;52.076;5.264;2022-08-01T02:02:41;14.9;;;10.1;;
67429;SDS011;54298;52.076;5.264;2022-08-01T02:04:28;14.4;;;9.71;;
67429;SDS011;54298;52.076;5.264;2022-08-01T02:06:18;14.6;;;10.0;;
67429;SDS011;54298;52.076;5.264;2022-08-01T02:08:05;15.0;;;9.5;;
67429;SDS011;54298;52.076;5.264;2022-08-01T02:09:53;15.5;;;9.81;;
67429;SDS011;54298;52.076;5.264;2022-08-01T02:11:41;14.1;;;9.1;;
67429;SDS011;54298;52.076;5.264;2022-08-01T02:15:18;15.5;;;10.3;;
67429;SDS011;54298;52.076;5.264;2022-08-01T02:17:06;13.5;;;9.31;;
67429;SDS011;54298;52.076;5.264;2022-08-01T02:18:57;13.7;;;9.0;;
67429;SDS011;54298;52.076;5.264;2022-08-01T02:20:44;18.3;;;10.9;;
67429;SDS011;54298;52.076;5.264;2022-08-01T02:22:33;16.7;;;11.0;;
67429;SDS011;54298;52.076;5.264;2022-08-01T02:24:29;15.7;;;9.1;;
67429;SDS011;54298;52.076;5.264;2022-08-01T02:26:24;15.9;;;9.4;;
67429;SDS011;54298;52.076;5.264;2022-08-01T02:30:05;14.6;;;10.4;;
67429;SDS011;54298;52.076;5.264;2022-08-01T02:31:55;17.11;;;8.81;;
67429;SDS011;54298;52.076;5.264;2022-08-01T02:33:43;15.4;;;9.1;;
67429;SDS011;54298;52.076;5.264;2022-08-01T02:35:35;17.8;;;9.0;;
67429;SDS011;54298;52.076;5.264;2022-08-01T02:37:27;16.9;;;10.3;;
67429;SDS011;54298;52.076;5.264;2022-08-01T02:39:19;14.1;;;8.5;;
67429;SDS011;54298;52.076;5.264;2022-08-01T02:41:09;12.9;;;8.81;;
67429;SDS011;54298;52.076;5.264;2022-08-01T02:42:59;14.4;;;8.2;;
67429;SDS011;54298;52.076;5.264;2022-08-01T02:46:38;14.5;;;9.21;;
67429;SDS011;54298;52.076;5.264;2022-08-01T02:48:29;14.3;;;8.31;;
67429;SDS011;54298;52.076;5.264;2022-08-01T02:50:19;10.5;;;6.7;;
67429;SDS011;54298;52.076;5.264;2022-08-01T02:52:10;12.7;;;7.4;;
67429;SDS011;54298;52.076;5.264;2022-08-01T02:54:01;11.8;;;6.6;;
67429;SDS011;54298;52.076;5.264;2022-08-01T02:55:51;12.4;;;6.9;;
67429;SDS011;54298;52.076;5.264;2022-08-01T02:57:40;14.1;;;7.2;;
67429;SDS011;54298;52.076;5.264;2022-08-01T03:01:19;12.0;;;7.4;;
67429;SDS011;54298;52.076;5.264;2022-08-01T03:03:08;12.5;;;8.5;;
67429;SDS011;54298;52.076;5.264;2022-08-01T03:04:57;15.8;;;7.6;;
67429;SDS011;54298;52.076;5.264;2022-08-01T03:06:46;12.8;;;7.9;;
67429;SDS011;54298;52.076;5.264;2022-08-01T03:08:33;13.2;;;8.2;;
67429;SDS011;54298;52.076;5.264;2022-08-01T03:10:23;14.4;;;7.5;;
67429;SDS011;54298;52.076;5.264;2022-08-01T03:14:12;13.1;;;7.4;;
67429;SDS011;54298;52.076;5.264;2022-08-01T03:16:00;11.5;;;8.31;;
67429;SDS011;54298;52.076;5.264;2022-08-01T03:17:51;13.6;;;7.5;;
67429;SDS011;54298;52.076;5.264;2022-08-01T03:19:40;13.4;;;8.5;;
67429;SDS011;54298;52.076;5.264;2022-08-01T03:21:30;13.9;;;7.8;;
67429;SDS011;54298;52.076;5.264;2022-08-01T03:23:19;13.0;;;8.81;;
67429;SDS011;54298;52.076;5.264;2022-08-01T03:25:08;11.0;;;7.1;;
67429;SDS011;54298;52.076;5.264;2022-08-01T03:26:57;11.6;;;6.6;;
67429;SDS011;54298;52.076;5.264;2022-08-01T03:30:33;13.0;;;7.8;;
67429;SDS011;54298;52.076;5.264;2022-08-01T03:32:22;12.0;;;7.2;;
67429;SDS011;54298;52.076;5.264;2022-08-01T03:34:10;11.6;;;6.5;;
67429;SDS011;54298;52.076;5.264;2022-08-01T03:35:58;11.8;;;7.9;;
67429;SDS011;54298;52.076;5.264;2022-08-01T03:37:48;11.5;;;7.1;;
67429;SDS011;54298;52.076;5.264;2022-08-01T03:39:40;11.3;;;7.3;;
67429;SDS011;54298;52.076;5.264;2022-08-01T03:41:34;9.81;;;7.0;;
67429;SDS011;54298;52.076;5.264;2022-08-01T03:45:25;10.6;;;6.8;;
67429;SDS011;54298;52.076;5.264;2022-08-01T03:47:13;9.71;;;7.4;;
67429;SDS011;54298;52.076;5.264;2022-08-01T03:49:06;11.4;;;7.4;;
67429;SDS011;54298;52.076;5.264;2022-08-01T03:51:08;12.8;;;7.0;;
67429;SDS011;54298;52.076;5.264;2022-08-01T03:52:57;11.1;;;6.9;;
67429;SDS011;54298;52.076;5.264;2022-08-01T03:56:38;12.2;;;7.2;;
67429;SDS011;54298;52.076;5.264;2022-08-01T03:58:27;11.9;;;8.0;;
67429;SDS011;54298;52.076;5.264;2022-08-01T04:02:05;11.2;;;6.9;;
67429;SDS011;54298;52.076;5.264;2022-08-01T04:03:53;13.1;;;7.7;;
67429;SDS011;54298;52.076;5.264;2022-08-01T04:05:40;12.7;;;9.0;;
67429;SDS011;54298;52.076;5.264;2022-08-01T04:07:28;14.9;;;9.4;;
67429;SDS011;54298;52.076;5.264;2022-08-01T04:09:16;11.8;;;8.1;;
67429;SDS011;54298;52.076;5.264;2022-08-01T04:11:03;11.5;;;8.1;;
67429;SDS011;54298;52.076;5.264;2022-08-01T04:14:38;13.5;;;8.5;;
67429;SDS011;54298;52.076;5.264;2022-08-01T04:16:24;15.1;;;8.2;;
67429;SDS011;54298;52.076;5.264;2022-08-01T04:18:11;15.6;;;8.71;;
67429;SDS011;54298;52.076;5.264;2022-08-01T04:19:57;13.6;;;8.4;;
67429;SDS011;54298;52.076;5.264;2022-08-01T04:21:44;14.5;;;8.31;;
67429;SDS011;54298;52.076;5.264;2022-08-01T04:23:31;12.8;;;8.81;;
67429;SDS011;54298;52.076;5.264;2022-08-01T04:27:13;12.5;;;9.31;;
67429;SDS011;54298;52.076;5.264;2022-08-01T04:29:10;14.3;;;9.31;;
67429;SDS011;54298;52.076;5.264;2022-08-01T04:30:59;14.0;;;8.6;;
67429;SDS011;54298;52.076;5.264;2022-08-01T04:32:47;13.6;;;9.4;;
67429;SDS011;54298;52.076;5.264;2022-08-01T04:34:35;16.61;;;9.81;;
67429;SDS011;54298;52.076;5.264;2022-08-01T04:36:25;12.4;;;9.1;;
67429;SDS011;54298;52.076;5.264;2022-08-01T04:38:17;12.3;;;8.81;;
67429;SDS011;54298;52.076;5.264;2022-08-01T04:40:10;12.9;;;9.0;;
67429;SDS011;54298;52.076;5.264;2022-08-01T04:43:46;16.0;;;9.4;;
67429;SDS011;54298;52.076;5.264;2022-08-01T04:45:33;13.8;;;8.71;;
67429;SDS011;54298;52.076;5.264;2022-08-01T04:47:21;13.3;;;9.5;;
67429;SDS011;54298;52.076;5.264;2022-08-01T04:49:09;13.3;;;9.1;;
67429;SDS011;54298;52.076;5.264;2022-08-01T04:50:56;13.9;;;9.4;;
67429;SDS011;54298;52.076;5.264;2022-08-01T04:52:42;14.2;;;9.81;;
67429;SDS011;54298;52.076;5.264;2022-08-01T04:56:18;13.7;;;9.5;;
67429;SDS011;54298;52.076;5.264;2022-08-01T04:58:06;14.5;;;9.9;;
67429;SDS011;54298;52.076;5.264;2022-08-01T04:59:56;11.9;;;8.4;;
67429;SDS011;54298;52.076;5.264;2022-08-01T05:01:47;12.0;;;9.1;;
67429;SDS011;54298;52.076;5.264;2022-08-01T05:03:35;11.0;;;8.4;;
67429;SDS011;54298;52.076;5.264;2022-08-01T05:05:22;12.7;;;8.4;;
67429;SDS011;54298;52.076;5.264;2022-08-01T05:08:56;14.2;;;8.71;;
67429;SDS011;54298;52.076;5.264;2022-08-01T05:10:42;12.0;;;8.81;;
67429;SDS011;54298;52.076;5.264;2022-08-01T05:12:28;10.8;;;8.81;;
67429;SDS011;54298;52.076;5.264;2022-08-01T05:14:15;12.8;;;7.3;;
67429;SDS011;54298;52.076;5.264;2022-08-01T05:16:03;11.1;;;6.9;;
67429;SDS011;54298;52.076;5.264;2022-08-01T05:17:50;10.5;;;7.3;;
67429;SDS011;54298;52.076;5.264;2022-08-01T05:21:25;10.7;;;7.4;;
67429;SDS011;54298;52.076;5.264;2022-08-01T05:23:12;8.5;;;6.1;;
67429;SDS011;54298;52.076;5.264;2022-08-01T05:24:59;10.4;;;8.2;;
67429;SDS011;54298;52.076;5.264;2022-08-01T05:26:45;8.81;;;6.0;;
67429;SDS011;54298;52.076;5.264;2022-08-01T05:28:31;6.7;;;5.6;;
67429;SDS011;54298;52.076;5.264;2022-08-01T05:30:17;7.0;;;5.6;;
67429;SDS011;54298;52.076;5.264;2022-08-01T05:33:51;5.11;;;3.2;;
67429;SDS011;54298;52.076;5.264;2022-08-01T05:35:37;6.4;;;3.9;;
67429;SDS011;54298;52.076;5.264;2022-08-01T05:37:24;6.5;;;3.7;;
67429;SDS011;54298;52.076;5.264;2022-08-01T05:39:10;6.3;;;3.5;;
67429;SDS011;54298;52.076;5.264;2022-08-01T05:40:57;4.91;;;3.4;;
67429;SDS011;54298;52.076;5.264;2022-08-01T05:44:30;4.7;;;3.2;;
67429;SDS011;54298;52.076;5.264;2022-08-01T05:46:17;3.7;;;2.7;;
67429;SDS011;54298;52.076;5.264;2022-08-01T05:48:04;5.3;;;2.31;;
67429;SDS011;54298;52.076;5.264;2022-08-01T05:49:50;5.11;;;2.4;;
67429;SDS011;54298;52.076;5.264;2022-08-01T05:51:36;4.61;;;2.1;;
67429;SDS011;54298;52.076;5.264;2022-08-01T05:53:22;3.6;;;2.4;;
67429;SDS011;54298;52.076;5.264;2022-08-01T05:56:59;4.41;;;2.31;;
67429;SDS011;54298;52.076;5.264;2022-08-01T05:58:46;4.2;;;2.31;;
67429;SDS011;54298;52.076;5.264;2022-08-01T06:00:33;3.7;;;2.4;;
67429;SDS011;54298;52.076;5.264;2022-08-01T06:02:20;3.8;;;2.5;;
67429;SDS011;54298;52.076;5.264;2022-08-01T06:04:06;5.11;;;3.3;;
67429;SDS011;54298;52.076;5.264;2022-08-01T06:05:52;6.1;;;2.6;;
67429;SDS011;54298;52.076;5.264;2022-08-01T06:11:12;5.2;;;2.9;;
67429;SDS011;54298;52.076;5.264;2022-08-01T06:13:02;5.8;;;2.7;;
67429;SDS011;54298;52.076;5.264;2022-08-01T06:14:49;3.1;;;2.21;;
67429;SDS011;54298;52.076;5.264;2022-08-01T06:16:35;3.7;;;2.31;;
67429;SDS011;54298;52.076;5.264;2022-08-01T06:20:09;4.41;;;2.5;;
67429;SDS011;54298;52.076;5.264;2022-08-01T06:21:56;5.5;;;2.5;;
67429;SDS011;54298;52.076;5.264;2022-08-01T06:23:42;7.3;;;3.1;;
67429;SDS011;54298;52.076;5.264;2022-08-01T06:25:28;4.7;;;2.9;;
67429;SDS011;54298;52.076;5.264;2022-08-01T06:27:16;4.3;;;2.4;;
67429;SDS011;54298;52.076;5.264;2022-08-01T06:29:02;4.3;;;2.4;;
67429;SDS011;54298;52.076;5.264;2022-08-01T06:32:36;2.31;;;1.5;;
67429;SDS011;54298;52.076;5.264;2022-08-01T06:34:22;5.5;;;3.1;;
67429;SDS011;54298;52.076;5.264;2022-08-01T06:36:09;4.41;;;1.9;;
67429;SDS011;54298;52.076;5.264;2022-08-01T06:37:55;2.7;;;1.8;;
67429;SDS011;54298;52.076;5.264;2022-08-01T06:39:42;3.0;;;1.7;;
67429;SDS011;54298;52.076;5.264;2022-08-01T06:41:29;3.4;;;1.9;;
67429;SDS011;54298;52.076;5.264;2022-08-01T06:45:02;3.7;;;1.8;;
67429;SDS011;54298;52.076;5.264;2022-08-01T06:46:49;3.9;;;1.9;;
67429;SDS011;54298;52.076;5.264;2022-08-01T06:48:39;3.9;;;1.8;;
67429;SDS011;54298;52.076;5.264;2022-08-01T06:50:25;3.7;;;1.9;;
67429;SDS011;54298;52.076;5.264;2022-08-01T06:52:11;3.8;;;1.9;;
67429;SDS011;54298;52.076;5.264;2022-08-01T06:53:58;2.9;;;1.7;;
67429;SDS011;54298;52.076;5.264;2022-08-01T06:57:30;2.9;;;1.5;;
67429;SDS011;54298;52.076;5.264;2022-08-01T06:59:17;7.1;;;4.3;;
67429;SDS011;54298;52.076;5.264;2022-08-01T07:01:05;6.0;;;3.1;;
67429;SDS011;54298;52.076;5.264;2022-08-01T07:02:53;7.0;;;4.3;;
67429;SDS011;54298;52.076;5.264;2022-08-01T07:04:42;5.7;;;3.1;;
67429;SDS011;54298;52.076;5.264;2022-08-01T07:08:15;3.6;;;2.4;;
67429;SDS011;54298;52.076;5.264;2022-08-01T07:10:03;3.3;;;1.9;;
67429;SDS011;54298;52.076;5.264;2022-08-01T07:11:52;3.4;;;2.4;;
67429;SDS011;54298;52.076;5.264;2022-08-01T07:13:39;5.0;;;2.7;;
67429;SDS011;54298;52.076;5.264;2022-08-01T07:15:26;2.4;;;1.4;;
67429;SDS011;54298;52.076;5.264;2022-08-01T07:17:13;3.6;;;1.5;;
67429;SDS011;54298;52.076;5.264;2022-08-01T07:20:46;3.2;;;1.5;;
67429;SDS011;54298;52.076;5.264;2022-08-01T07:22:32;4.7;;;2.5;;
67429;SDS011;54298;52.076;5.264;2022-08-01T07:24:19;4.3;;;2.5;;
67429;SDS011;54298;52.076;5.264;2022-08-01T07:26:06;2.7;;;1.9;;
67429;SDS011;54298;52.076;5.264;2022-08-01T07:27:53;4.2;;;2.21;;
67429;SDS011;54298;52.076;5.264;2022-08-01T07:29:39;2.7;;;1.9;;
67429;SDS011;54298;52.076;5.264;2022-08-01T07:33:11;4.61;;;2.0;;
67429;SDS011;54298;52.076;5.264;2022-08-01T07:34:58;4.2;;;2.21;;
67429;SDS011;54298;52.076;5.264;2022-08-01T07:36:45;6.8;;;2.0;;
67429;SDS011;54298;52.076;5.264;2022-08-01T07:38:32;4.1;;;2.21;;
67429;SDS011;54298;52.076;5.264;2022-08-01T07:40:19;11.5;;;2.4;;
67429;SDS011;54298;52.076;5.264;2022-08-01T07:42:06;8.5;;;2.4;;
67429;SDS011;54298;52.076;5.264;2022-08-01T07:45:39;10.0;;;3.4;;
67429;SDS011;54298;52.076;5.264;2022-08-01T07:47:27;7.7;;;2.9;;
67429;SDS011;54298;52.076;5.264;2022-08-01T07:49:13;8.2;;;3.1;;
67429;SDS011;54298;52.076;5.264;2022-08-01T07:51:00;14.6;;;3.8;;
67429;SDS011;54298;52.076;5.264;2022-08-01T07:52:46;14.3;;;4.0;;
67429;SDS011;54298;52.076;5.264;2022-08-01T07:56:20;11.6;;;3.8;;
67429;SDS011;54298;52.076;5.264;2022-08-01T07:58:06;12.1;;;3.8;;
67429;SDS011;54298;52.076;5.264;2022-08-01T07:59:53;14.2;;;4.0;;
67429;SDS011;54298;52.076;5.264;2022-08-01T08:01:41;14.8;;;3.8;;
67429;SDS011;54298;52.076;5.264;2022-08-01T08:03:27;19.41;;;4.3;;
67429;SDS011;54298;52.076;5.264;2022-08-01T08:05:14;18.0;;;4.41;;
67429;SDS011;54298;52.076;5.264;2022-08-01T08:08:48;17.11;;;4.61;;
67429;SDS011;54298;52.076;5.264;2022-08-01T08:10:34;17.2;;;4.7;;
67429;SDS011;54298;52.076;5.264;2022-08-01T08:12:20;20.2;;;4.41;;
67429;SDS011;54298;52.076;5.264;2022-08-01T08:14:07;19.11;;;4.7;;
67429;SDS011;54298;52.076;5.264;2022-08-01T08:15:53;19.3;;;4.61;;
67429;SDS011;54298;52.076;5.264;2022-08-01T08:17:39;17.41;;;4.2;;
67429;SDS011;54298;52.076;5.264;2022-08-01T08:21:12;19.3;;;4.91;;
67429;SDS011;54298;52.076;5.264;2022-08-01T08:22:58;19.3;;;4.91;;
67429;SDS011;54298;52.076;5.264;2022-08-01T08:24:45;18.11;;;4.5;;
67429;SDS011;54298;52.076;5.264;2022-08-01T08:26:32;17.0;;;4.8;;
67429;SDS011;54298;52.076;5.264;2022-08-01T08:28:18;21.9;;;4.8;;
67429;SDS011;54298;52.076;5.264;2022-08-01T08:31:55;17.0;;;3.9;;
67429;SDS011;54298;52.076;5.264;2022-08-01T08:33:42;16.7;;;4.0;;
67429;SDS011;54298;52.076;5.264;2022-08-01T08:35:28;16.4;;;4.61;;
67429;SDS011;54298;52.076;5.264;2022-08-01T08:37:16;19.7;;;4.7;;
67429;SDS011;54298;52.076;5.264;2022-08-01T08:39:03;15.8;;;4.2;;
67429;SDS011;54298;52.076;5.264;2022-08-01T08:40:51;19.0;;;4.91;;
67429;SDS011;54298;52.076;5.264;2022-08-01T08:44:26;17.11;;;5.0;;
67429;SDS011;54298;52.076;5.264;2022-08-01T08:46:12;19.2;;;4.61;;
67429;SDS011;54298;52.076;5.264;2022-08-01T08:48:00;17.5;;;4.41;;
67429;SDS011;54298;52.076;5.264;2022-08-01T08:49:48;18.11;;;4.91;;
67429;SDS011;54298;52.076;5.264;2022-08-01T08:51:37;16.9;;;4.2;;
67429;SDS011;54298;52.076;5.264;2022-08-01T08:53:26;15.7;;;4.41;;
67429;SDS011;54298;52.076;5.264;2022-08-01T08:57:03;15.2;;;3.9;;
67429;SDS011;54298;52.076;5.264;2022-08-01T08:58:51;19.3;;;6.3;;
67429;SDS011;54298;52.076;5.264;2022-08-01T09:00:38;16.2;;;4.3;;
67429;SDS011;54298;52.076;5.264;2022-08-01T09:02:25;14.5;;;4.1;;
67429;SDS011;54298;52.076;5.264;2022-08-01T09:04:12;16.5;;;4.41;;
67429;SDS011;54298;52.076;5.264;2022-08-01T09:05:59;16.61;;;3.6;;
67429;SDS011;54298;52.076;5.264;2022-08-01T09:09:32;16.0;;;3.5;;
67429;SDS011;54298;52.076;5.264;2022-08-01T09:11:19;16.11;;;3.5;;
67429;SDS011;54298;52.076;5.264;2022-08-01T09:13:08;13.8;;;3.5;;
67429;SDS011;54298;52.076;5.264;2022-08-01T09:14:56;14.4;;;4.1;;
67429;SDS011;54298;52.076;5.264;2022-08-01T09:16:44;13.7;;;4.3;;
67429;SDS011;54298;52.076;5.264;2022-08-01T09:18:32;20.11;;;7.8;;
67429;SDS011;54298;52.076;5.264;2022-08-01T09:22:10;14.9;;;4.41;;
67429;SDS011;54298;52.076;5.264;2022-08-01T09:24:03;43.3;;;24.1;;
67429;SDS011;54298;52.076;5.264;2022-08-01T09:25:51;20.9;;;7.2;;
67429;SDS011;54298;52.076;5.264;2022-08-01T09:27:39;17.8;;;4.8;;
67429;SDS011;54298;52.076;5.264;2022-08-01T09:29:26;12.5;;;3.9;;
67429;SDS011;54298;52.076;5.264;2022-08-01T09:31:18;16.9;;;3.7;;
67429;SDS011;54298;52.076;5.264;2022-08-01T09:33:05;13.5;;;4.0;;
67429;SDS011;54298;52.076;5.264;2022-08-01T09:36:46;16.61;;;5.7;;
67429;SDS011;54298;52.076;5.264;2022-08-01T09:38:41;16.9;;;4.1;;
67429;SDS011;54298;52.076;5.264;2022-08-01T09:40:43;13.4;;;3.5;;
67429;SDS011;54298;52.076;5.264;2022-08-01T09:42:30;15.6;;;3.9;;
67429;SDS011;54298;52.076;5.264;2022-08-01T09:44:17;16.8;;;3.9;;
67429;SDS011;54298;52.076;5.264;2022-08-01T09:46:05;11.9;;;3.2;;
67429;SDS011;54298;52.076;5.264;2022-08-01T09:47:55;14.3;;;4.1;;
67429;SDS011;54298;52.076;5.264;2022-08-01T09:49:42;12.3;;;3.4;;
67429;SDS011;54298;52.076;5.264;2022-08-01T09:53:20;12.1;;;3.8;;
67429;SDS011;54298;52.076;5.264;2022-08-01T09:55:09;12.6;;;5.0;;
67429;SDS011;54298;52.076;5.264;2022-08-01T09:56:57;16.3;;;4.1;;
67429;SDS011;54298;52.076;5.264;2022-08-01T09:58:55;13.1;;;4.41;;
67429;SDS011;54298;52.076;5.264;2022-08-01T10:00:42;13.7;;;3.0;;
67429;SDS011;54298;52.076;5.264;2022-08-01T10:02:45;16.8;;;4.5;;
67429;SDS011;54298;52.076;5.264;2022-08-01T10:04:32;13.4;;;4.5;;
67429;SDS011;54298;52.076;5.264;2022-08-01T10:08:07;14.7;;;2.9;;
67429;SDS011;54298;52.076;5.264;2022-08-01T10:09:53;10.6;;;2.7;;
67429;SDS011;54298;52.076;5.264;2022-08-01T10:11:40;12.4;;;2.8;;
67429;SDS011;54298;52.076;5.264;2022-08-01T10:13:30;13.1;;;2.7;;
67429;SDS011;54298;52.076;5.264;2022-08-01T10:15:16;10.5;;;2.6;;
67429;SDS011;54298;52.076;5.264;2022-08-01T10:17:05;8.81;;;2.5;;
67429;SDS011;54298;52.076;5.264;2022-08-01T10:20:42;12.5;;;2.8;;
67429;SDS011;54298;52.076;5.264;2022-08-01T10:22:31;14.5;;;3.8;;
67429;SDS011;54298;52.076;5.264;2022-08-01T10:24:18;10.7;;;4.3;;
67429;SDS011;54298;52.076;5.264;2022-08-01T10:26:07;11.6;;;3.0;;
67429;SDS011;54298;52.076;5.264;2022-08-01T10:27:56;11.9;;;2.5;;
67429;SDS011;54298;52.076;5.264;2022-08-01T10:29:46;14.5;;;2.9;;
67429;SDS011;54298;52.076;5.264;2022-08-01T10:31:39;11.4;;;2.8;;
67429;SDS011;54298;52.076;5.264;2022-08-01T10:35:17;14.6;;;2.9;;
67429;SDS011;54298;52.076;5.264;2022-08-01T10:37:04;14.3;;;2.9;;
67429;SDS011;54298;52.076;5.264;2022-08-01T10:40:42;13.2;;;2.9;;
67429;SDS011;54298;52.076;5.264;2022-08-01T10:42:29;14.6;;;3.3;;
67429;SDS011;54298;52.076;5.264;2022-08-01T10:44:15;11.0;;;2.21;;
67429;SDS011;54298;52.076;5.264;2022-08-01T10:47:53;12.9;;;3.0;;
67429;SDS011;54298;52.076;5.264;2022-08-01T10:49:47;13.3;;;2.8;;
67429;SDS011;54298;52.076;5.264;2022-08-01T10:51:39;12.6;;;3.0;;
67429;SDS011;54298;52.076;5.264;2022-08-01T10:53:27;10.7;;;2.31;;
67429;SDS011;54298;52.076;5.264;2022-08-01T10:57:00;15.1;;;5.2;;
67429;SDS011;54298;52.076;5.264;2022-08-01T10:58:47;12.8;;;2.9;;
67429;SDS011;54298;52.076;5.264;2022-08-01T11:02:25;11.7;;;3.3;;
67429;SDS011;54298;52.076;5.264;2022-08-01T11:04:14;13.6;;;3.2;;
67429;SDS011;54298;52.076;5.264;2022-08-01T11:06:03;13.1;;;3.0;;
67429;SDS011;54298;52.076;5.264;2022-08-01T11:07:51;12.5;;;2.8;;
67429;SDS011;54298;52.076;5.264;2022-08-01T11:09:40;10.9;;;2.5;;
67429;SDS011;54298;52.076;5.264;2022-08-01T11:11:28;11.5;;;2.9;;
67429;SDS011;54298;52.076;5.264;2022-08-01T11:15:47;9.31;;;2.4;;
67429;SDS011;54298;52.076;5.264;2022-08-01T11:17:34;13.4;;;3.3;;
67429;SDS011;54298;52.076;5.264;2022-08-01T11:21:09;10.3;;;2.4;;
67429;SDS011;54298;52.076;5.264;2022-08-01T11:23:15;9.6;;;2.21;;
67429;SDS011;54298;52.076;5.264;2022-08-01T11:25:02;11.1;;;2.5;;
67429;SDS011;54298;52.076;5.264;2022-08-01T11:27:13;9.21;;;2.21;;
67429;SDS011;54298;52.076;5.264;2022-08-01T11:29:10;9.5;;;2.4;;
67429;SDS011;54298;52.076;5.264;2022-08-01T11:31:34;8.1;;;2.1;;
67429;SDS011;54298;52.076;5.264;2022-08-01T11:33:47;9.4;;;2.21;;
67429;SDS011;54298;52.076;5.264;2022-08-01T11:35:35;11.1;;;2.1;;
67429;SDS011;54298;52.076;5.264;2022-08-01T11:37:24;9.6;;;2.0;;
67429;SDS011;54298;52.076;5.264;2022-08-01T11:39:14;9.71;;;2.4;;
67429;SDS011;54298;52.076;5.264;2022-08-01T11:41:09;8.5;;;2.0;;
67429;SDS011;54298;52.076;5.264;2022-08-01T11:43:31;6.3;;;1.8;;
67429;SDS011;54298;52.076;5.264;2022-08-01T11:45:19;9.81;;;2.21;;
67429;SDS011;54298;52.076;5.264;2022-08-01T11:47:07;8.6;;;2.0;;
67429;SDS011;54298;52.076;5.264;2022-08-01T11:49:21;9.4;;;2.1;;
67429;SDS011;54298;52.076;5.264;2022-08-01T11:54:51;9.9;;;2.8;;
67429;SDS011;54298;52.076;5.264;2022-08-01T11:56:41;13.1;;;3.2;;
67429;SDS011;54298;52.076;5.264;2022-08-01T11:58:28;11.1;;;6.2;;
67429;SDS011;54298;52.076;5.264;2022-08-01T12:00:15;9.5;;;4.2;;
67429;SDS011;54298;52.076;5.264;2022-08-01T12:02:03;8.71;;;2.21;;
67429;SDS011;54298;52.076;5.264;2022-08-01T12:04:00;5.8;;;1.6;;
67429;SDS011;54298;52.076;5.264;2022-08-01T12:05:47;6.3;;;1.5;;
67429;SDS011;54298;52.076;5.264;2022-08-01T12:09:21;6.1;;;1.6;;
67429;SDS011;54298;52.076;5.264;2022-08-01T12:11:08;7.5;;;1.6;;
67429;SDS011;54298;52.076;5.264;2022-08-01T12:12:55;5.11;;;1.4;;
67429;SDS011;54298;52.076;5.264;2022-08-01T12:14:52;6.5;;;1.3;;
67429;SDS011;54298;52.076;5.264;2022-08-01T12:16:40;6.5;;;1.2;;
67429;SDS011;54298;52.076;5.264;2022-08-01T12:18:37;5.8;;;1.5;;
67429;SDS011;54298;52.076;5.264;2022-08-01T12:20:25;4.41;;;1.3;;
67429;SDS011;54298;52.076;5.264;2022-08-01T12:24:02;5.6;;;1.2;;
67429;SDS011;54298;52.076;5.264;2022-08-01T12:25:50;4.5;;;1.4;;
67429;SDS011;54298;52.076;5.264;2022-08-01T12:27:38;5.5;;;1.5;;
67429;SDS011;54298;52.076;5.264;2022-08-01T12:29:34;11.4;;;4.7;;
67429;SDS011;54298;52.076;5.264;2022-08-01T12:31:30;4.91;;;1.5;;
67429;SDS011;54298;52.076;5.264;2022-08-01T12:33:17;4.91;;;1.5;;
67429;SDS011;54298;52.076;5.264;2022-08-01T12:35:06;8.31;;;3.5;;
67429;SDS011;54298;52.076;5.264;2022-08-01T12:38:44;9.0;;;4.5;;
67429;SDS011;54298;52.076;5.264;2022-08-01T12:40:40;4.61;;;1.5;;
67429;SDS011;54298;52.076;5.264;2022-08-01T12:42:29;13.2;;;6.6;;
67429;SDS011;54298;52.076;5.264;2022-08-01T12:44:15;13.5;;;6.1;;
67429;SDS011;54298;52.076;5.264;2022-08-01T12:46:02;7.3;;;3.4;;
67429;SDS011;54298;52.076;5.264;2022-08-01T12:47:49;4.3;;;0.9;;
67429;SDS011;54298;52.076;5.264;2022-08-01T12:49:38;5.0;;;1.4;;
67429;SDS011;54298;52.076;5.264;2022-08-01T12:53:14;5.7;;;1.8;;
67429;SDS011;54298;52.076;5.264;2022-08-01T12:55:04;7.4;;;2.5;;
67429;SDS011;54298;52.076;5.264;2022-08-01T12:56:57;10.7;;;5.3;;
67429;SDS011;54298;52.076;5.264;2022-08-01T12:58:43;6.0;;;1.9;;
67429;SDS011;54298;52.076;5.264;2022-08-01T13:00:29;2.8;;;0.9;;